sensor_id;sensor_type;location;lat;lon;timestamp;pressure;altitude;pressure_sealevel;temperature;humidity
56074;BME280;41950;55.840;37.442;2023-02-18T00:02:03;99711.47;;;-7.71;73.32
56074;BME280;41950;55.840;37.442;2023-02-18T00:04:28;99706.28;;;-7.74;73.45
56074;BME280;41950;55.840;37.442;2023-02-18T00:06:54;99716.97;;;-7.64;73.42
56074;BME280;41950;55.840;37.442;2023-02-18T00:09:20;99720.00;;;-7.69;73.42
56074;BME280;41950;55.840;37.442;2023-02-18T00:11:45;99721.56;;;-7.71;73.63
56074;BME280;41950;55.840;37.442;2023-02-18T00:14:13;99700.22;;;-7.78;73.39
56074;BME280;41950;55.840;37.442;2023-02-18T00:16:40;99709.59;;;-7.75;73.29
56074;BME280;41950;55.840;37.442;2023-02-18T00:19:07;99714.63;;;-7.75;73.29
56074;BME280;41950;55.840;37.442;2023-02-18T00:21:35;99719.50;;;-7.79;73.59
56074;BME280;41950;55.840;37.442;2023-02-18T00:24:02;99706.72;;;-7.82;73.59
56074;BME280;41950;55.840;37.442;2023-02-18T00:26:28;99698.16;;;-7.85;73.51
56074;BME280;41950;55.840;37.442;2023-02-18T00:28:53;99700.25;;;-7.93;73.60
56074;BME280;41950;55.840;37.442;2023-02-18T00:31:22;99695.47;;;-7.88;73.54
56074;BME280;41950;55.840;37.442;2023-02-18T00:33:48;99687.44;;;-7.96;73.58
56074;BME280;41950;55.840;37.442;2023-02-18T00:36:17;99688.84;;;-8.01;73.44
56074;BME280;41950;55.840;37.442;2023-02-18T00:38:47;99689.38;;;-7.92;73.43
56074;BME280;41950;55.840;37.442;2023-02-18T00:41:13;99682.25;;;-7.99;73.47
56074;BME280;41950;55.840;37.442;2023-02-18T00:43:40;99671.06;;;-8.04;73.59
56074;BME280;41950;55.840;37.442;2023-02-18T00:46:05;99672.19;;;-7.99;73.57
56074;BME280;41950;55.840;37.442;2023-02-18T00:48:32;99666.03;;;-8.04;73.44
56074;BME280;41950;55.840;37.442;2023-02-18T00:50:59;99676.34;;;-7.99;73.65
56074;BME280;41950;55.840;37.442;2023-02-18T00:53:26;99668.63;;;-8.02;73.79
56074;BME280;41950;55.840;37.442;2023-02-18T00:55:52;99658.06;;;-8.12;73.54
56074;BME280;41950;55.840;37.442;2023-02-18T00:58:17;99649.63;;;-8.12;73.95
56074;BME280;41950;55.840;37.442;2023-02-18T01:00:43;99652.31;;;-8.09;73.88
56074;BME280;41950;55.840;37.442;2023-02-18T01:03:10;99655.00;;;-8.06;74.07
56074;BME280;41950;55.840;37.442;2023-02-18T01:05:37;99632.25;;;-8.07;74.17
56074;BME280;41950;55.840;37.442;2023-02-18T01:08:03;99627.31;;;-8.06;74.09
56074;BME280;41950;55.840;37.442;2023-02-18T01:10:29;99602.03;;;-8.22;74.06
56074;BME280;41950;55.840;37.442;2023-02-18T01:12:55;99632.50;;;-8.03;74.12
56074;BME280;41950;55.840;37.442;2023-02-18T01:15:21;99625.66;;;-8.05;74.42
56074;BME280;41950;55.840;37.442;2023-02-18T01:17:47;99592.84;;;-8.22;74.44
56074;BME280;41950;55.840;37.442;2023-02-18T01:20:14;99611.41;;;-8.05;74.61
56074;BME280;41950;55.840;37.442;2023-02-18T01:22:40;99595.72;;;-8.16;74.62
56074;BME280;41950;55.840;37.442;2023-02-18T01:25:07;99607.25;;;-8.04;74.87
56074;BME280;41950;55.840;37.442;2023-02-18T01:27:33;99592.59;;;-8.12;74.75
56074;BME280;41950;55.840;37.442;2023-02-18T01:29:59;99604.47;;;-8.09;74.92
56074;BME280;41950;55.840;37.442;2023-02-18T01:32:25;99585.91;;;-8.11;74.99
56074;BME280;41950;55.840;37.442;2023-02-18T01:34:50;99578.81;;;-8.18;75.32
56074;BME280;41950;55.840;37.442;2023-02-18T01:37:16;99580.00;;;-8.12;75.32
56074;BME280;41950;55.840;37.442;2023-02-18T01:39:42;99570.78;;;-8.11;75.15
56074;BME280;41950;55.840;37.442;2023-02-18T01:42:18;99537.28;;;-8.25;75.12
56074;BME280;41950;55.840;37.442;2023-02-18T01:44:46;99470.91;;;-8.74;74.98
56074;BME280;41950;55.840;37.442;2023-02-18T01:47:13;99549.38;;;-8.19;74.83
56074;BME280;41950;55.840;37.442;2023-02-18T01:49:39;99521.88;;;-8.31;75.19
56074;BME280;41950;55.840;37.442;2023-02-18T01:52:09;99544.03;;;-8.09;75.17
56074;BME280;41950;55.840;37.442;2023-02-18T01:55:03;99547.50;;;-8.07;74.99
56074;BME280;41950;55.840;37.442;2023-02-18T01:57:34;99535.53;;;-8.11;74.63
56074;BME280;41950;55.840;37.442;2023-02-18T02:00:06;99536.03;;;-8.02;74.66
56074;BME280;41950;55.840;37.442;2023-02-18T02:02:36;99531.94;;;-8.00;74.73
56074;BME280;41950;55.840;37.442;2023-02-18T02:05:03;99524.38;;;-8.00;74.64
56074;BME280;41950;55.840;37.442;2023-02-18T02:07:29;99532.69;;;-7.86;74.09
56074;BME280;41950;55.840;37.442;2023-02-18T02:09:56;99533.88;;;-7.80;73.79
56074;BME280;41950;55.840;37.442;2023-02-18T02:13:00;99507.41;;;-7.88;73.77
56074;BME280;41950;55.840;37.442;2023-02-18T02:15:33;99521.13;;;-7.66;73.73
56074;BME280;41950;55.840;37.442;2023-02-18T02:23:32;99514.13;;;-7.56;73.27
56074;BME280;41950;55.840;37.442;2023-02-18T02:34:31;99504.88;;;-7.71;73.97
56074;BME280;41950;55.840;37.442;2023-02-18T02:53:13;99465.34;;;-8.21;76.30
56074;BME280;41950;55.840;37.442;2023-02-18T02:55:40;99474.16;;;-8.13;76.36
56074;BME280;41950;55.840;37.442;2023-02-18T02:58:06;99481.50;;;-8.01;76.58
56074;BME280;41950;55.840;37.442;2023-02-18T03:03:19;99463.06;;;-8.17;76.60
56074;BME280;41950;55.840;37.442;2023-02-18T03:11:16;99472.28;;;-8.17;77.22
56074;BME280;41950;55.840;37.442;2023-02-18T03:20:02;99435.31;;;-8.34;77.46
56074;BME280;41950;55.840;37.442;2023-02-18T03:22:34;99454.22;;;-8.25;77.38
56074;BME280;41950;55.840;37.442;2023-02-18T03:25:04;99427.59;;;-8.37;77.73
56074;BME280;41950;55.840;37.442;2023-02-18T03:27:36;99405.44;;;-8.59;77.84
56074;BME280;41950;55.840;37.442;2023-02-18T03:30:12;99423.38;;;-8.53;78.19
56074;BME280;41950;55.840;37.442;2023-02-18T03:32:38;99406.28;;;-8.75;78.53
56074;BME280;41950;55.840;37.442;2023-02-18T03:35:13;99411.47;;;-8.72;78.86
56074;BME280;41950;55.840;37.442;2023-02-18T03:37:44;99409.28;;;-8.66;79.21
56074;BME280;41950;55.840;37.442;2023-02-18T03:40:12;99411.66;;;-8.69;79.12
56074;BME280;41950;55.840;37.442;2023-02-18T03:42:40;99314.31;;;-9.17;79.07
56074;BME280;41950;55.840;37.442;2023-02-18T03:45:06;99365.69;;;-8.81;79.08
56074;BME280;41950;55.840;37.442;2023-02-18T03:47:32;99395.38;;;-8.59;79.25
56074;BME280;41950;55.840;37.442;2023-02-18T03:49:57;99398.13;;;-8.55;79.33
56074;BME280;41950;55.840;37.442;2023-02-18T03:52:23;99396.72;;;-8.50;79.42
56074;BME280;41950;55.840;37.442;2023-02-18T03:54:49;99386.00;;;-8.47;79.27
56074;BME280;41950;55.840;37.442;2023-02-18T03:57:15;99333.25;;;-8.77;79.23
56074;BME280;41950;55.840;37.442;2023-02-18T03:59:40;99399.75;;;-8.40;79.07
56074;BME280;41950;55.840;37.442;2023-02-18T04:02:06;99382.91;;;-8.42;79.16
56074;BME280;41950;55.840;37.442;2023-02-18T04:04:32;99336.09;;;-8.70;79.16
56074;BME280;41950;55.840;37.442;2023-02-18T04:06:57;99384.34;;;-8.47;79.10
56074;BME280;41950;55.840;37.442;2023-02-18T04:09:23;99354.66;;;-8.52;79.31
56074;BME280;41950;55.840;37.442;2023-02-18T04:11:49;99373.72;;;-8.41;79.34
56074;BME280;41950;55.840;37.442;2023-02-18T04:14:14;99321.56;;;-8.60;79.53
56074;BME280;41950;55.840;37.442;2023-02-18T04:16:41;99345.97;;;-8.43;79.16
56074;BME280;41950;55.840;37.442;2023-02-18T04:19:06;99335.19;;;-8.40;79.17
56074;BME280;41950;55.840;37.442;2023-02-18T04:21:32;99328.72;;;-8.35;79.21
56074;BME280;41950;55.840;37.442;2023-02-18T04:23:59;99343.31;;;-8.12;78.97
56074;BME280;41950;55.840;37.442;2023-02-18T04:26:25;99346.94;;;-8.06;78.87
56074;BME280;41950;55.840;37.442;2023-02-18T04:28:51;99341.25;;;-8.02;78.69
56074;BME280;41950;55.840;37.442;2023-02-18T04:31:17;99260.84;;;-8.50;78.92
56074;BME280;41950;55.840;37.442;2023-02-18T04:33:43;99346.78;;;-8.10;78.93
56074;BME280;41950;55.840;37.442;2023-02-18T04:36:08;99331.22;;;-8.19;79.25
56074;BME280;41950;55.840;37.442;2023-02-18T04:38:34;99292.31;;;-8.42;79.38
56074;BME280;41950;55.840;37.442;2023-02-18T04:41:00;99338.84;;;-8.17;79.45
56074;BME280;41950;55.840;37.442;2023-02-18T04:43:25;99306.16;;;-8.33;79.38
56074;BME280;41950;55.840;37.442;2023-02-18T04:45:51;99330.44;;;-8.18;79.45
56074;BME280;41950;55.840;37.442;2023-02-18T04:48:17;99336.56;;;-8.13;79.42
56074;BME280;41950;55.840;37.442;2023-02-18T04:50:43;99337.56;;;-8.09;79.62
56074;BME280;41950;55.840;37.442;2023-02-18T04:53:09;99319.50;;;-8.18;79.44
56074;BME280;41950;55.840;37.442;2023-02-18T04:55:34;99340.41;;;-8.03;79.33
56074;BME280;41950;55.840;37.442;2023-02-18T04:58:00;99332.19;;;-7.99;79.23
56074;BME280;41950;55.840;37.442;2023-02-18T05:00:26;99319.75;;;-7.96;79.08
56074;BME280;41950;55.840;37.442;2023-02-18T05:02:53;99271.13;;;-8.29;78.98
56074;BME280;41950;55.840;37.442;2023-02-18T05:05:18;99293.19;;;-8.07;78.81
56074;BME280;41950;55.840;37.442;2023-02-18T05:07:44;99308.69;;;-7.99;78.48
56074;BME280;41950;55.840;37.442;2023-02-18T05:10:15;99306.09;;;-8.01;78.69
56074;BME280;41950;55.840;37.442;2023-02-18T05:12:40;99276.63;;;-8.20;78.30
56074;BME280;41950;55.840;37.442;2023-02-18T05:15:07;99293.28;;;-8.05;78.99
56074;BME280;41950;55.840;37.442;2023-02-18T05:17:33;99256.50;;;-8.20;79.20
56074;BME280;41950;55.840;37.442;2023-02-18T05:19:59;99297.88;;;-7.97;78.69
56074;BME280;41950;55.840;37.442;2023-02-18T05:22:24;99275.41;;;-8.10;78.64
56074;BME280;41950;55.840;37.442;2023-02-18T05:24:50;99267.06;;;-8.09;78.81
56074;BME280;41950;55.840;37.442;2023-02-18T05:27:16;99254.28;;;-8.14;78.41
56074;BME280;41950;55.840;37.442;2023-02-18T05:29:41;99260.69;;;-8.02;78.42
56074;BME280;41950;55.840;37.442;2023-02-18T05:32:07;99268.00;;;-7.91;78.38
56074;BME280;41950;55.840;37.442;2023-02-18T05:34:32;99262.31;;;-7.87;78.57
56074;BME280;41950;55.840;37.442;2023-02-18T05:36:58;99264.44;;;-7.94;77.71
56074;BME280;41950;55.840;37.442;2023-02-18T05:39:24;99245.50;;;-8.04;78.47
56074;BME280;41950;55.840;37.442;2023-02-18T05:41:49;99201.72;;;-8.24;78.94
56074;BME280;41950;55.840;37.442;2023-02-18T05:44:15;99254.91;;;-7.84;79.05
56074;BME280;41950;55.840;37.442;2023-02-18T05:47:15;99244.25;;;-7.78;78.58
56074;BME280;41950;55.840;37.442;2023-02-18T05:49:41;99237.56;;;-7.78;78.49
56074;BME280;41950;55.840;37.442;2023-02-18T05:52:07;99229.41;;;-7.72;78.77
56074;BME280;41950;55.840;37.442;2023-02-18T05:54:34;99196.44;;;-7.94;77.88
56074;BME280;41950;55.840;37.442;2023-02-18T05:57:00;99194.50;;;-8.00;77.62
56074;BME280;41950;55.840;37.442;2023-02-18T05:59:25;99222.41;;;-7.95;77.54
56074;BME280;41950;55.840;37.442;2023-02-18T06:01:52;99203.50;;;-8.05;77.80
56074;BME280;41950;55.840;37.442;2023-02-18T06:04:18;99218.75;;;-7.84;77.99
56074;BME280;41950;55.840;37.442;2023-02-18T06:06:44;99214.72;;;-7.81;77.95
56074;BME280;41950;55.840;37.442;2023-02-18T06:09:10;99190.84;;;-7.89;77.78
56074;BME280;41950;55.840;37.442;2023-02-18T06:11:35;99207.13;;;-7.64;77.84
56074;BME280;41950;55.840;37.442;2023-02-18T06:14:01;99200.50;;;-7.62;77.14
56074;BME280;41950;55.840;37.442;2023-02-18T06:16:27;99203.44;;;-7.53;77.26
56074;BME280;41950;55.840;37.442;2023-02-18T06:18:53;99206.09;;;-7.50;76.19
56074;BME280;41950;55.840;37.442;2023-02-18T06:21:19;99165.88;;;-7.66;76.30
56074;BME280;41950;55.840;37.442;2023-02-18T06:23:45;99148.59;;;-7.76;75.96
56074;BME280;41950;55.840;37.442;2023-02-18T06:26:10;99145.78;;;-7.65;75.60
56074;BME280;41950;55.840;37.442;2023-02-18T06:28:36;99170.81;;;-7.50;75.42
56074;BME280;41950;55.840;37.442;2023-02-18T06:31:02;99190.09;;;-7.51;74.78
56074;BME280;41950;55.840;37.442;2023-02-18T06:33:28;99139.44;;;-7.74;75.08
56074;BME280;41950;55.840;37.442;2023-02-18T06:35:58;99171.59;;;-7.51;74.75
56074;BME280;41950;55.840;37.442;2023-02-18T06:38:24;99165.75;;;-7.50;74.92
56074;BME280;41950;55.840;37.442;2023-02-18T06:40:50;99174.22;;;-7.30;74.75
56074;BME280;41950;55.840;37.442;2023-02-18T06:43:15;99174.84;;;-7.17;74.80
56074;BME280;41950;55.840;37.442;2023-02-18T06:45:41;99163.31;;;-7.11;74.20
56074;BME280;41950;55.840;37.442;2023-02-18T06:48:07;99161.25;;;-7.01;72.99
56074;BME280;41950;55.840;37.442;2023-02-18T06:50:32;99157.59;;;-7.07;73.05
56074;BME280;41950;55.840;37.442;2023-02-18T06:52:58;99163.50;;;-7.07;72.67
56074;BME280;41950;55.840;37.442;2023-02-18T06:55:24;99159.19;;;-7.09;72.66
56074;BME280;41950;55.840;37.442;2023-02-18T06:57:50;99145.00;;;-7.07;72.45
56074;BME280;41950;55.840;37.442;2023-02-18T07:00:16;99135.97;;;-7.02;72.82
56074;BME280;41950;55.840;37.442;2023-02-18T07:02:42;99103.19;;;-7.02;72.71
56074;BME280;41950;55.840;37.442;2023-02-18T07:05:08;99131.72;;;-6.84;71.63
56074;BME280;41950;55.840;37.442;2023-02-18T07:07:33;99130.63;;;-6.89;71.73
56074;BME280;41950;55.840;37.442;2023-02-18T07:09:59;99128.41;;;-6.83;71.73
56074;BME280;41950;55.840;37.442;2023-02-18T07:12:25;99122.13;;;-6.91;70.74
56074;BME280;41950;55.840;37.442;2023-02-18T07:14:51;99121.22;;;-6.93;70.35
56074;BME280;41950;55.840;37.442;2023-02-18T07:17:17;99104.97;;;-7.00;70.62
56074;BME280;41950;55.840;37.442;2023-02-18T07:19:43;99074.78;;;-7.18;70.04
56074;BME280;41950;55.840;37.442;2023-02-18T07:22:09;99083.75;;;-7.05;70.00
56074;BME280;41950;55.840;37.442;2023-02-18T07:24:34;99089.44;;;-7.09;69.61
56074;BME280;41950;55.840;37.442;2023-02-18T07:27:00;99087.00;;;-7.07;70.29
56074;BME280;41950;55.840;37.442;2023-02-18T07:29:26;99096.84;;;-6.93;70.12
56074;BME280;41950;55.840;37.442;2023-02-18T07:31:51;99095.13;;;-6.94;70.11
56074;BME280;41950;55.840;37.442;2023-02-18T07:34:18;99056.78;;;-7.06;70.25
56074;BME280;41950;55.840;37.442;2023-02-18T07:36:44;99079.78;;;-6.79;70.12
56074;BME280;41950;55.840;37.442;2023-02-18T07:39:09;99074.69;;;-6.80;69.61
56074;BME280;41950;55.840;37.442;2023-02-18T07:41:35;99079.91;;;-6.76;70.06
56074;BME280;41950;55.840;37.442;2023-02-18T07:44:01;99067.66;;;-6.67;69.84
56074;BME280;41950;55.840;37.442;2023-02-18T07:46:26;99070.25;;;-6.44;68.84
56074;BME280;41950;55.840;37.442;2023-02-18T07:48:52;99073.88;;;-6.38;68.73
56074;BME280;41950;55.840;37.442;2023-02-18T07:51:18;99050.63;;;-6.51;68.17
56074;BME280;41950;55.840;37.442;2023-02-18T07:53:44;99063.34;;;-6.48;68.71
56074;BME280;41950;55.840;37.442;2023-02-18T07:56:09;99031.47;;;-6.46;68.77
56074;BME280;41950;55.840;37.442;2023-02-18T07:58:37;99018.91;;;-6.45;68.47
56074;BME280;41950;55.840;37.442;2023-02-18T08:01:08;99054.22;;;-6.24;67.68
56074;BME280;41950;55.840;37.442;2023-02-18T08:03:34;99049.72;;;-6.31;67.72
56074;BME280;41950;55.840;37.442;2023-02-18T08:06:01;99005.88;;;-6.56;67.88
56074;BME280;41950;55.840;37.442;2023-02-18T08:08:29;99034.56;;;-6.31;67.80
56074;BME280;41950;55.840;37.442;2023-02-18T08:10:58;99038.50;;;-6.17;67.92
56074;BME280;41950;55.840;37.442;2023-02-18T08:13:24;99040.19;;;-5.95;67.70
56074;BME280;41950;55.840;37.442;2023-02-18T08:15:50;99020.88;;;-5.93;66.70
56074;BME280;41950;55.840;37.442;2023-02-18T08:18:20;98987.66;;;-6.26;67.30
56074;BME280;41950;55.840;37.442;2023-02-18T08:20:47;98994.16;;;-6.31;67.39
56074;BME280;41950;55.840;37.442;2023-02-18T08:23:13;98988.56;;;-6.24;67.80
56074;BME280;41950;55.840;37.442;2023-02-18T08:25:39;99008.25;;;-6.15;67.57
56074;BME280;41950;55.840;37.442;2023-02-18T08:28:05;99004.63;;;-6.22;67.87
56074;BME280;41950;55.840;37.442;2023-02-18T08:30:31;99017.59;;;-6.13;68.20
56074;BME280;41950;55.840;37.442;2023-02-18T08:32:57;99005.56;;;-5.98;68.28
56074;BME280;41950;55.840;37.442;2023-02-18T08:35:22;98999.94;;;-5.89;67.78
56074;BME280;41950;55.840;37.442;2023-02-18T08:37:48;98975.09;;;-6.02;67.96
56074;BME280;41950;55.840;37.442;2023-02-18T08:40:14;98980.75;;;-5.84;67.98
56074;BME280;41950;55.840;37.442;2023-02-18T08:42:40;98984.75;;;-5.90;68.16
56074;BME280;41950;55.840;37.442;2023-02-18T08:45:06;98978.50;;;-5.76;68.35
56074;BME280;41950;55.840;37.442;2023-02-18T08:47:32;98929.56;;;-5.78;67.70
56074;BME280;41950;55.840;37.442;2023-02-18T08:49:58;98967.75;;;-5.47;67.89
56074;BME280;41950;55.840;37.442;2023-02-18T08:52:25;98921.66;;;-5.64;67.43
56074;BME280;41950;55.840;37.442;2023-02-18T08:54:50;98926.91;;;-5.34;67.47
56074;BME280;41950;55.840;37.442;2023-02-18T08:57:16;98952.34;;;-5.04;66.24
56074;BME280;41950;55.840;37.442;2023-02-18T08:59:42;98926.75;;;-5.13;66.36
56074;BME280;41950;55.840;37.442;2023-02-18T09:02:13;98953.94;;;-4.80;66.11
56074;BME280;41950;55.840;37.442;2023-02-18T09:04:39;98950.91;;;-4.69;66.12
56074;BME280;41950;55.840;37.442;2023-02-18T09:07:04;98934.59;;;-4.78;65.88
56074;BME280;41950;55.840;37.442;2023-02-18T09:09:30;98938.72;;;-5.07;66.45
56074;BME280;41950;55.840;37.442;2023-02-18T09:11:56;98935.69;;;-5.22;67.44
56074;BME280;41950;55.840;37.442;2023-02-18T09:14:22;98924.31;;;-5.10;67.51
56074;BME280;41950;55.840;37.442;2023-02-18T09:16:47;98927.19;;;-4.99;67.32
56074;BME280;41950;55.840;37.442;2023-02-18T09:19:15;98920.00;;;-4.87;67.38
56074;BME280;41950;55.840;37.442;2023-02-18T09:21:41;98921.81;;;-4.83;66.65
56074;BME280;41950;55.840;37.442;2023-02-18T09:24:06;98904.00;;;-4.86;66.89
56074;BME280;41950;55.840;37.442;2023-02-18T09:26:32;98869.19;;;-4.93;66.97
56074;BME280;41950;55.840;37.442;2023-02-18T09:28:58;98876.16;;;-4.86;66.56
56074;BME280;41950;55.840;37.442;2023-02-18T09:31:25;98896.00;;;-4.71;66.84
56074;BME280;41950;55.840;37.442;2023-02-18T09:34:01;98884.75;;;-4.52;66.61
56074;BME280;41950;55.840;37.442;2023-02-18T09:36:27;98884.00;;;-4.20;66.48
56074;BME280;41950;55.840;37.442;2023-02-18T09:38:53;98857.31;;;-4.09;65.73
56074;BME280;41950;55.840;37.442;2023-02-18T09:44:08;98866.63;;;-4.08;64.42
56074;BME280;41950;55.840;37.442;2023-02-18T09:46:41;98867.66;;;-4.31;65.27
56074;BME280;41950;55.840;37.442;2023-02-18T09:49:15;98857.28;;;-4.39;65.67
56074;BME280;41950;55.840;37.442;2023-02-18T09:51:43;98851.84;;;-4.52;66.03
56074;BME280;41950;55.840;37.442;2023-02-18T09:54:11;98790.53;;;-4.71;66.03
56074;BME280;41950;55.840;37.442;2023-02-18T09:56:40;98822.66;;;-4.40;65.79
56074;BME280;41950;55.840;37.442;2023-02-18T09:59:16;98796.88;;;-4.56;65.46
56074;BME280;41950;55.840;37.442;2023-02-18T10:01:45;98828.31;;;-4.48;65.81
56074;BME280;41950;55.840;37.442;2023-02-18T10:04:27;98825.19;;;-4.40;65.82
56074;BME280;41950;55.840;37.442;2023-02-18T10:06:54;98823.09;;;-4.24;65.61
56074;BME280;41950;55.840;37.442;2023-02-18T10:09:35;98799.16;;;-4.36;64.71
56074;BME280;41950;55.840;37.442;2023-02-18T10:12:14;98812.13;;;-4.53;65.70
56074;BME280;41950;55.840;37.442;2023-02-18T10:14:48;98793.63;;;-4.81;66.18
56074;BME280;41950;55.840;37.442;2023-02-18T10:17:15;98806.66;;;-4.67;66.67
56074;BME280;41950;55.840;37.442;2023-02-18T10:19:43;98796.13;;;-4.52;66.37
56074;BME280;41950;55.840;37.442;2023-02-18T10:22:12;98800.75;;;-4.68;66.14
56074;BME280;41950;55.840;37.442;2023-02-18T10:27:08;98777.38;;;-4.59;66.48
56074;BME280;41950;55.840;37.442;2023-02-18T10:29:35;98787.28;;;-4.37;65.75
56074;BME280;41950;55.840;37.442;2023-02-18T10:34:48;98779.63;;;-4.08;65.56
56074;BME280;41950;55.840;37.442;2023-02-18T10:37:24;98775.19;;;-4.15;64.98
56074;BME280;41950;55.840;37.442;2023-02-18T10:48:41;98750.91;;;-4.39;66.04
56074;BME280;41950;55.840;37.442;2023-02-18T10:51:22;98748.09;;;-4.18;65.94
56074;BME280;41950;55.840;37.442;2023-02-18T10:53:51;98725.41;;;-3.80;65.33
56074;BME280;41950;55.840;37.442;2023-02-18T10:56:48;98708.78;;;-3.30;63.37
56074;BME280;41950;55.840;37.442;2023-02-18T10:59:25;98730.59;;;-3.00;61.73
56074;BME280;41950;55.840;37.442;2023-02-18T11:02:13;98724.66;;;-2.59;61.88
56074;BME280;41950;55.840;37.442;2023-02-18T11:04:43;98712.81;;;-2.58;60.14
56074;BME280;41950;55.840;37.442;2023-02-18T11:07:26;98712.53;;;-2.28;60.55
56074;BME280;41950;55.840;37.442;2023-02-18T11:10:16;98727.16;;;-2.18;59.77
56074;BME280;41950;55.840;37.442;2023-02-18T11:12:48;98713.34;;;-2.31;59.89
56074;BME280;41950;55.840;37.442;2023-02-18T11:17:42;98696.59;;;-2.66;60.05
56074;BME280;41950;55.840;37.442;2023-02-18T11:20:30;98718.28;;;-2.38;60.25
56074;BME280;41950;55.840;37.442;2023-02-18T11:23:19;98698.81;;;-2.38;60.17
56074;BME280;41950;55.840;37.442;2023-02-18T11:26:00;98681.88;;;-2.39;58.62
56074;BME280;41950;55.840;37.442;2023-02-18T11:30:59;98693.00;;;-2.31;58.33
56074;BME280;41950;55.840;37.442;2023-02-18T11:33:36;98653.91;;;-2.39;58.05
56074;BME280;41950;55.840;37.442;2023-02-18T11:36:38;98672.53;;;-2.40;57.88
56074;BME280;41950;55.840;37.442;2023-02-18T11:39:11;98666.97;;;-2.66;58.62
56074;BME280;41950;55.840;37.442;2023-02-18T11:41:46;98673.72;;;-2.68;58.37
56074;BME280;41950;55.840;37.442;2023-02-18T11:44:28;98663.84;;;-2.96;59.84
56074;BME280;41950;55.840;37.442;2023-02-18T11:47:08;98670.81;;;-2.41;59.22
56074;BME280;41950;55.840;37.442;2023-02-18T11:52:40;98661.81;;;-2.22;57.60
56074;BME280;41950;55.840;37.442;2023-02-18T11:55:07;98656.00;;;-2.16;57.95
56074;BME280;41950;55.840;37.442;2023-02-18T11:57:42;98634.22;;;-1.99;57.08
56074;BME280;41950;55.840;37.442;2023-02-18T12:00:42;98646.47;;;-1.75;56.59
56074;BME280;41950;55.840;37.442;2023-02-18T12:06:04;98634.97;;;-1.50;55.81
56074;BME280;41950;55.840;37.442;2023-02-18T12:08:40;98615.94;;;-1.10;55.17
56074;BME280;41950;55.840;37.442;2023-02-18T12:11:22;98628.22;;;-0.80;53.28
56074;BME280;41950;55.840;37.442;2023-02-18T12:13:54;98609.25;;;-1.04;53.31
56074;BME280;41950;55.840;37.442;2023-02-18T12:41:49;98601.41;;;-1.84;57.43
56074;BME280;41950;55.840;37.442;2023-02-18T12:44:38;98603.38;;;-2.21;58.39
56074;BME280;41950;55.840;37.442;2023-02-18T12:55:50;98600.88;;;-3.14;60.21
56074;BME280;41950;55.840;37.442;2023-02-18T12:58:38;98547.38;;;-3.26;59.79
56074;BME280;41950;55.840;37.442;2023-02-18T13:15:00;98567.94;;;-3.92;62.61
56074;BME280;41950;55.840;37.442;2023-02-18T13:17:33;98571.75;;;-4.11;62.65
56074;BME280;41950;55.840;37.442;2023-02-18T13:20:18;98560.47;;;-4.24;63.27
56074;BME280;41950;55.840;37.442;2023-02-18T13:22:46;98577.97;;;-4.34;63.41
56074;BME280;41950;55.840;37.442;2023-02-18T13:25:15;98570.16;;;-4.42;63.85
56074;BME280;41950;55.840;37.442;2023-02-18T13:27:52;98578.56;;;-4.45;64.30
56074;BME280;41950;55.840;37.442;2023-02-18T13:30:31;98557.19;;;-4.56;64.81
56074;BME280;41950;55.840;37.442;2023-02-18T13:33:21;98571.19;;;-4.69;65.29
56074;BME280;41950;55.840;37.442;2023-02-18T13:41:19;98557.38;;;-4.83;66.16
56074;BME280;41950;55.840;37.442;2023-02-18T13:43:46;98555.72;;;-4.81;66.33
56074;BME280;41950;55.840;37.442;2023-02-18T13:46:13;98549.81;;;-4.81;66.51
56074;BME280;41950;55.840;37.442;2023-02-18T13:49:05;98554.72;;;-4.87;66.38
56074;BME280;41950;55.840;37.442;2023-02-18T13:51:40;98538.50;;;-4.94;66.66
56074;BME280;41950;55.840;37.442;2023-02-18T13:56:39;98523.09;;;-5.03;66.79
56074;BME280;41950;55.840;37.442;2023-02-18T13:59:16;98486.28;;;-5.25;67.16
56074;BME280;41950;55.840;37.442;2023-02-18T14:01:48;98483.00;;;-5.21;66.93
56074;BME280;41950;55.840;37.442;2023-02-18T14:09:44;98491.78;;;-5.08;67.41
56074;BME280;41950;55.840;37.442;2023-02-18T14:14:51;98529.19;;;-4.95;68.08
56074;BME280;41950;55.840;37.442;2023-02-18T14:19:53;98496.31;;;-4.95;68.28
56074;BME280;41950;55.840;37.442;2023-02-18T14:22:41;98506.59;;;-4.89;68.37
56074;BME280;41950;55.840;37.442;2023-02-18T14:27:39;98462.09;;;-5.15;68.23
56074;BME280;41950;55.840;37.442;2023-02-18T14:32:43;98480.06;;;-5.05;68.57
56074;BME280;41950;55.840;37.442;2023-02-18T14:35:36;98497.97;;;-4.95;68.67
56074;BME280;41950;55.840;37.442;2023-02-18T14:38:34;98494.59;;;-4.96;68.91
56074;BME280;41950;55.840;37.442;2023-02-18T14:49:51;98481.72;;;-5.05;68.67
56074;BME280;41950;55.840;37.442;2023-02-18T14:54:55;98479.19;;;-5.05;68.56
56074;BME280;41950;55.840;37.442;2023-02-18T14:57:30;98473.25;;;-5.07;67.62
56074;BME280;41950;55.840;37.442;2023-02-18T14:59:58;98442.31;;;-5.30;68.01
56074;BME280;41950;55.840;37.442;2023-02-18T15:02:26;98473.25;;;-5.07;68.27
56074;BME280;41950;55.840;37.442;2023-02-18T15:05:10;98460.59;;;-5.07;67.68
56074;BME280;41950;55.840;37.442;2023-02-18T15:07:37;98451.78;;;-5.21;67.21
56074;BME280;41950;55.840;37.442;2023-02-18T15:10:02;98469.00;;;-5.08;67.30
56074;BME280;41950;55.840;37.442;2023-02-18T15:12:29;98479.06;;;-5.11;67.66
56074;BME280;41950;55.840;37.442;2023-02-18T15:15:00;98461.19;;;-5.17;68.00
56074;BME280;41950;55.840;37.442;2023-02-18T15:17:29;98441.94;;;-5.12;68.38
56074;BME280;41950;55.840;37.442;2023-02-18T15:19:58;98459.00;;;-5.04;68.32
56074;BME280;41950;55.840;37.442;2023-02-18T15:22:26;98419.66;;;-5.25;68.29
56074;BME280;41950;55.840;37.442;2023-02-18T15:24:55;98448.97;;;-4.99;68.38
56074;BME280;41950;55.840;37.442;2023-02-18T15:27:27;98446.66;;;-4.91;68.50
56074;BME280;41950;55.840;37.442;2023-02-18T15:30:03;98414.25;;;-5.06;68.64
56074;BME280;41950;55.840;37.442;2023-02-18T15:32:37;98421.97;;;-5.00;69.02
56074;BME280;41950;55.840;37.442;2023-02-18T15:35:14;98419.41;;;-5.02;68.84
56074;BME280;41950;55.840;37.442;2023-02-18T15:37:43;98426.31;;;-4.94;68.71